Terminal Aerodrome Forecast
Issued by NWS

Home | Current Version | Previous Version | Text Only | Print | Product List | Glossary On
Versions: 1 2 3 4 5 6 7 8 9 10 11
522
FTUS45 KMSO 301120
TAFSMN
TAF
KSMN 301120Z 3012/0112 VRB04KT P6SM VCSH OVC100
     FM301500 VRB06KT P6SM -SHRA BKN080 OVC100
     FM302000 31010G18KT P6SM VCSH BKN070 OVC100
     FM010200 36007KT P6SM BKN060
      AMD LTD TO CLD VIS AND WIND=

USA.gov is the U.S. government's official web portal to all federal, state and local government web resources and services.